KSHD/SHD METAR and TAF weather

Enter ICAO airport designator
Station Type Date Time Source
KSHD METAR 2019/07/17 18:50 UTC NOAA

KSHD 171850Z AUTO 26011G17KT 10SM -RA SCT030 SCT047 BKN060 26/22 A3003 RMK AO2 LTG DSNT N AND S T02640216


Station Type Date Time Source
KSHD Decoded METAR 2019/07/17 18:50 UTC NOAA

Staunton / Shenandoah, VA, United States (KSHD) 38-16N 078-54W
Jul 17, 2019 - 02:50 PM EDT / 2019.07.17 1850 UTC
Wind: from the W (260 degrees) at 13 MPH (11 KT) gusting to 20 MPH (17 KT):0
Visibility: 10 mile(s):0
Sky conditions: mostly cloudy
Weather: light rain; Lightning observed
Temperature: 79.5 F (26.4 C)
Dew Point: 70.9 F (21.6 C)
Relative Humidity: 74%
Pressure (altimeter): 30.03 in. Hg (1016 hPa)
ob: KSHD 171850Z AUTO 26011G17KT 10SM -RA SCT030 SCT047 BKN060 26/22 A3003 RMK AO2 LTG DSNT N AND S T02640216
cycle: 19

Station Type Date Time Source
KSHD TAF UTC NOAA

Error!

Example: see airport list